sensor_id;sensor_type;location;lat;lon;timestamp;pressure;altitude;pressure_sealevel;temperature;humidity
64668;BME280;51077;42.716;23.344;2023-11-22T00:00:54;94668.97;;;10.01;58.08
64668;BME280;51077;42.716;23.344;2023-11-22T00:03:19;94666.25;;;10.01;57.92
64668;BME280;51077;42.716;23.344;2023-11-22T00:05:45;94668.44;;;10.03;57.78
64668;BME280;51077;42.716;23.344;2023-11-22T00:08:12;94669.19;;;10.03;57.84
64668;BME280;51077;42.716;23.344;2023-11-22T00:10:37;94671.41;;;10.05;57.83
64668;BME280;51077;42.716;23.344;2023-11-22T00:13:03;94665.91;;;10.05;57.75
64668;BME280;51077;42.716;23.344;2023-11-22T00:15:28;94667.91;;;10.04;57.89
64668;BME280;51077;42.716;23.344;2023-11-22T00:17:54;94659.91;;;10.06;57.89
64668;BME280;51077;42.716;23.344;2023-11-22T00:20:19;94661.94;;;10.06;57.72
64668;BME280;51077;42.716;23.344;2023-11-22T00:22:46;94658.66;;;10.07;57.68
64668;BME280;51077;42.716;23.344;2023-11-22T00:25:12;94655.91;;;10.07;57.68
64668;BME280;51077;42.716;23.344;2023-11-22T00:27:38;94659.63;;;10.10;57.85
64668;BME280;51077;42.716;23.344;2023-11-22T00:30:04;94659.63;;;10.10;57.69
64668;BME280;51077;42.716;23.344;2023-11-22T00:39:14;94650.31;;;10.13;57.68
64668;BME280;51077;42.716;23.344;2023-11-22T00:48:23;94661.59;;;10.10;57.80
64668;BME280;51077;42.716;23.344;2023-11-22T00:50:48;94654.88;;;10.11;57.90
64668;BME280;51077;42.716;23.344;2023-11-22T00:53:14;94673.09;;;10.08;57.93
64668;BME280;51077;42.716;23.344;2023-11-22T00:55:40;94662.88;;;10.08;57.84
64668;BME280;51077;42.716;23.344;2023-11-22T00:58:07;94665.59;;;10.08;58.01
64668;BME280;51077;42.716;23.344;2023-11-22T01:00:32;94649.16;;;10.08;57.99
64668;BME280;51077;42.716;23.344;2023-11-22T01:02:58;94650.63;;;10.10;58.00
64668;BME280;51077;42.716;23.344;2023-11-22T01:05:23;94642.41;;;10.10;57.85
64668;BME280;51077;42.716;23.344;2023-11-22T01:07:49;94646.66;;;10.11;58.05
64668;BME280;51077;42.716;23.344;2023-11-22T01:10:15;94646.66;;;10.11;57.85
64668;BME280;51077;42.716;23.344;2023-11-22T01:12:41;94634.41;;;10.12;57.96
64668;BME280;51077;42.716;23.344;2023-11-22T01:15:07;94632.94;;;10.11;58.09
64668;BME280;51077;42.716;23.344;2023-11-22T01:17:34;94626.19;;;10.12;57.97
64668;BME280;51077;42.716;23.344;2023-11-22T01:20:00;94629.47;;;10.10;57.88
64668;BME280;51077;42.716;23.344;2023-11-22T01:22:26;94627.97;;;10.09;58.15
64668;BME280;51077;42.716;23.344;2023-11-22T01:24:52;94631.97;;;10.08;57.98
64668;BME280;51077;42.716;23.344;2023-11-22T01:27:18;94643.16;;;10.10;58.01
64668;BME280;51077;42.716;23.344;2023-11-22T01:29:44;94629.97;;;10.08;58.06
64668;BME280;51077;42.716;23.344;2023-11-22T01:32:09;94623.75;;;10.08;58.14
64668;BME280;51077;42.716;23.344;2023-11-22T01:34:35;94627.03;;;10.06;58.13
64668;BME280;51077;42.716;23.344;2023-11-22T01:37:01;94624.28;;;10.06;58.10
64668;BME280;51077;42.716;23.344;2023-11-22T01:39:26;94607.84;;;10.06;58.19
64668;BME280;51077;42.716;23.344;2023-11-22T01:41:52;94617.53;;;10.07;58.17
64668;BME280;51077;42.716;23.344;2023-11-22T01:44:19;94603.09;;;10.07;58.07
64668;BME280;51077;42.716;23.344;2023-11-22T01:46:45;94596.88;;;10.06;58.13
64668;BME280;51077;42.716;23.344;2023-11-22T01:49:11;94590.09;;;10.07;58.28
64668;BME280;51077;42.716;23.344;2023-11-22T01:51:37;94590.31;;;10.10;58.27
64668;BME280;51077;42.716;23.344;2023-11-22T01:54:04;94597.81;;;10.09;58.23
64668;BME280;51077;42.716;23.344;2023-11-22T01:56:31;94610.25;;;10.10;58.11
64668;BME280;51077;42.716;23.344;2023-11-22T01:58:57;94611.50;;;10.09;58.01
64668;BME280;51077;42.716;23.344;2023-11-22T02:01:26;94612.25;;;10.10;58.10
64668;BME280;51077;42.716;23.344;2023-11-22T02:03:52;94610.78;;;10.08;58.14
64668;BME280;51077;42.716;23.344;2023-11-22T02:06:19;94599.06;;;10.08;58.16
64668;BME280;51077;42.716;23.344;2023-11-22T02:08:47;94601.81;;;10.08;58.19
64668;BME280;51077;42.716;23.344;2023-11-22T02:11:12;94601.06;;;10.07;58.19
64668;BME280;51077;42.716;23.344;2023-11-22T02:13:38;94588.84;;;10.08;58.21
64668;BME280;51077;42.716;23.344;2023-11-22T02:16:04;94595.59;;;10.07;58.21
64668;BME280;51077;42.716;23.344;2023-11-22T02:18:30;94589.38;;;10.07;58.02
64668;BME280;51077;42.716;23.344;2023-11-22T02:20:56;94596.88;;;10.06;58.12
64668;BME280;51077;42.716;23.344;2023-11-22T02:23:22;94589.88;;;10.05;58.27
64668;BME280;51077;42.716;23.344;2023-11-22T02:25:47;94587.13;;;10.05;58.39
64668;BME280;51077;42.716;23.344;2023-11-22T02:28:13;94589.88;;;10.05;58.17
64668;BME280;51077;42.716;23.344;2023-11-22T02:30:39;94593.16;;;10.04;58.26
64668;BME280;51077;42.716;23.344;2023-11-22T02:33:05;94594.44;;;10.03;58.30
64668;BME280;51077;42.716;23.344;2023-11-22T02:35:31;94603.38;;;10.03;58.14
64668;BME280;51077;42.716;23.344;2023-11-22T02:37:58;94604.66;;;10.02;58.27
64668;BME280;51077;42.716;23.344;2023-11-22T02:40:24;94605.16;;;10.01;58.36
64668;BME280;51077;42.716;23.344;2023-11-22T02:42:52;94601.69;;;10.00;58.45
64668;BME280;51077;42.716;23.344;2023-11-22T02:45:27;94594.00;;;9.99;58.41
64668;BME280;51077;42.716;23.344;2023-11-22T02:47:53;94589.97;;;10.00;58.48
64668;BME280;51077;42.716;23.344;2023-11-22T02:50:19;94598.22;;;10.00;58.48
64668;BME280;51077;42.716;23.344;2023-11-22T02:52:45;94598.22;;;10.00;58.63
64668;BME280;51077;42.716;23.344;2023-11-22T02:55:10;94592.72;;;10.00;58.55
64668;BME280;51077;42.716;23.344;2023-11-22T02:57:39;94587.25;;;10.00;58.43
64668;BME280;51077;42.716;23.344;2023-11-22T03:00:06;94598.22;;;10.00;58.48
64668;BME280;51077;42.716;23.344;2023-11-22T03:02:33;94596.19;;;10.00;58.59
64668;BME280;51077;42.716;23.344;2023-11-22T03:04:59;94594.19;;;10.01;58.49
64668;BME280;51077;42.716;23.344;2023-11-22T03:07:27;94598.94;;;10.00;58.42
64668;BME280;51077;42.716;23.344;2023-11-22T03:09:53;94592.00;;;9.99;58.44
64668;BME280;51077;42.716;23.344;2023-11-22T03:12:19;94596.72;;;9.99;58.44
64668;BME280;51077;42.716;23.344;2023-11-22T03:14:48;94601.47;;;9.98;58.45
64668;BME280;51077;42.716;23.344;2023-11-22T03:17:15;94594.72;;;9.99;58.49
64668;BME280;51077;42.716;23.344;2023-11-22T03:19:40;94599.47;;;9.99;58.49
64668;BME280;51077;42.716;23.344;2023-11-22T03:22:06;94597.78;;;9.96;58.67
64668;BME280;51077;42.716;23.344;2023-11-22T03:24:32;94599.03;;;9.95;58.68
64668;BME280;51077;42.716;23.344;2023-11-22T03:27:00;94608.53;;;9.94;58.66
64668;BME280;51077;42.716;23.344;2023-11-22T03:29:26;94614.75;;;9.94;58.61
64668;BME280;51077;42.716;23.344;2023-11-22T03:31:52;94618.22;;;9.95;58.80
64668;BME280;51077;42.716;23.344;2023-11-22T03:34:19;94618.22;;;9.95;58.71
64668;BME280;51077;42.716;23.344;2023-11-22T03:36:45;94610.53;;;9.93;58.88
64668;BME280;51077;42.716;23.344;2023-11-22T03:39:10;94610.75;;;9.95;58.74
64668;BME280;51077;42.716;23.344;2023-11-22T03:41:36;94614.22;;;9.96;58.99
64668;BME280;51077;42.716;23.344;2023-11-22T03:44:05;94596.31;;;9.95;58.70
64668;BME280;51077;42.716;23.344;2023-11-22T03:46:36;94601.47;;;9.98;58.50
64668;BME280;51077;42.716;23.344;2023-11-22T03:49:05;94596.72;;;9.99;58.56
64668;BME280;51077;42.716;23.344;2023-11-22T03:51:35;94602.22;;;9.99;58.55
64668;BME280;51077;42.716;23.344;2023-11-22T03:54:02;94605.69;;;9.99;58.55
64668;BME280;51077;42.716;23.344;2023-11-22T03:56:28;94594.19;;;10.01;58.53
64668;BME280;51077;42.716;23.344;2023-11-22T03:58:54;94594.97;;;10.01;58.51
64668;BME280;51077;42.716;23.344;2023-11-22T04:01:20;94597.16;;;10.03;58.59
64668;BME280;51077;42.716;23.344;2023-11-22T04:03:46;94602.66;;;10.03;58.42
64668;BME280;51077;42.716;23.344;2023-11-22T04:06:17;94615.09;;;10.04;58.26
64668;BME280;51077;42.716;23.344;2023-11-22T04:08:47;94608.34;;;10.05;58.31
64668;BME280;51077;42.716;23.344;2023-11-22T04:11:13;94611.81;;;10.05;58.40
64668;BME280;51077;42.716;23.344;2023-11-22T04:13:39;94614.56;;;10.05;58.36
64668;BME280;51077;42.716;23.344;2023-11-22T04:16:06;94629.75;;;10.06;58.39
64668;BME280;51077;42.716;23.344;2023-11-22T04:18:34;94636.72;;;10.07;58.47
64668;BME280;51077;42.716;23.344;2023-11-22T04:21:01;94638.00;;;10.06;58.39
64668;BME280;51077;42.716;23.344;2023-11-22T04:23:28;94646.94;;;10.07;58.45
64668;BME280;51077;42.716;23.344;2023-11-22T04:25:53;94650.19;;;10.05;58.32
64668;BME280;51077;42.716;23.344;2023-11-22T04:28:19;94643.97;;;10.05;58.44
64668;BME280;51077;42.716;23.344;2023-11-22T04:30:44;94655.69;;;10.05;58.38
64668;BME280;51077;42.716;23.344;2023-11-22T04:33:10;94654.22;;;10.04;58.44
64668;BME280;51077;42.716;23.344;2023-11-22T04:35:36;94651.25;;;10.02;58.57
64668;BME280;51077;42.716;23.344;2023-11-22T04:38:04;94658.94;;;10.04;58.48
64668;BME280;51077;42.716;23.344;2023-11-22T04:40:30;94658.94;;;10.04;58.44
64668;BME280;51077;42.716;23.344;2023-11-22T04:42:55;94658.22;;;10.03;58.60
64668;BME280;51077;42.716;23.344;2023-11-22T04:45:21;94656.75;;;10.02;58.52
64668;BME280;51077;42.716;23.344;2023-11-22T04:47:46;94659.69;;;10.04;58.61
64668;BME280;51077;42.716;23.344;2023-11-22T04:50:12;94656.75;;;10.02;58.53
64668;BME280;51077;42.716;23.344;2023-11-22T04:52:38;94663.69;;;10.03;58.60
64668;BME280;51077;42.716;23.344;2023-11-22T04:55:05;94654.22;;;10.04;58.49
64668;BME280;51077;42.716;23.344;2023-11-22T04:57:30;94679.63;;;10.05;58.52
64668;BME280;51077;42.716;23.344;2023-11-22T04:59:55;94691.31;;;10.05;58.66
64668;BME280;51077;42.716;23.344;2023-11-22T05:02:21;94705.78;;;10.06;58.75
64668;BME280;51077;42.716;23.344;2023-11-22T05:04:46;94700.09;;;10.04;58.49
64668;BME280;51077;42.716;23.344;2023-11-22T05:07:15;94709.78;;;10.05;58.62
64668;BME280;51077;42.716;23.344;2023-11-22T05:09:41;94699.56;;;10.05;58.76
64668;BME280;51077;42.716;23.344;2023-11-22T05:12:09;94715.25;;;10.05;58.67
64668;BME280;51077;42.716;23.344;2023-11-22T05:14:34;94724.22;;;10.05;58.66
64668;BME280;51077;42.716;23.344;2023-11-22T05:16:59;94725.50;;;10.04;58.80
64668;BME280;51077;42.716;23.344;2023-11-22T05:19:25;94724.47;;;10.07;58.48
64668;BME280;51077;42.716;23.344;2023-11-22T05:21:50;94717.50;;;10.06;58.77
64668;BME280;51077;42.716;23.344;2023-11-22T05:24:16;94721.47;;;10.05;58.70
64668;BME280;51077;42.716;23.344;2023-11-22T05:26:42;94730.97;;;10.04;58.72
64668;BME280;51077;42.716;23.344;2023-11-22T05:29:07;94731.72;;;10.05;58.71
64668;BME280;51077;42.716;23.344;2023-11-22T05:31:33;94729.72;;;10.05;58.69
64668;BME280;51077;42.716;23.344;2023-11-22T05:33:58;94733.94;;;10.06;58.69
64668;BME280;51077;42.716;23.344;2023-11-22T05:36:24;94743.66;;;10.07;58.64
64668;BME280;51077;42.716;23.344;2023-11-22T05:38:49;94746.41;;;10.07;58.68
64668;BME280;51077;42.716;23.344;2023-11-22T05:41:15;94748.41;;;10.07;58.76
64668;BME280;51077;42.716;23.344;2023-11-22T05:43:41;94751.13;;;10.07;58.90
64668;BME280;51077;42.716;23.344;2023-11-22T05:46:08;94765.78;;;10.10;58.91
64668;BME280;51077;42.716;23.344;2023-11-22T05:48:33;94767.28;;;10.11;58.91
64668;BME280;51077;42.716;23.344;2023-11-22T05:50:59;94761.06;;;10.10;58.80
64668;BME280;51077;42.716;23.344;2023-11-22T05:53:25;94763.28;;;10.12;58.74
64668;BME280;51077;42.716;23.344;2023-11-22T05:55:50;94768.97;;;10.14;58.85
64668;BME280;51077;42.716;23.344;2023-11-22T05:58:16;94768.97;;;10.14;58.84
64668;BME280;51077;42.716;23.344;2023-11-22T06:00:46;94770.69;;;10.17;58.79
64668;BME280;51077;42.716;23.344;2023-11-22T06:03:12;94770.69;;;10.17;58.78
64668;BME280;51077;42.716;23.344;2023-11-22T06:05:38;94779.16;;;10.19;58.83
64668;BME280;51077;42.716;23.344;2023-11-22T06:08:04;94783.56;;;10.22;58.87
64668;BME280;51077;42.716;23.344;2023-11-22T06:10:29;94789.78;;;10.22;58.78
64668;BME280;51077;42.716;23.344;2023-11-22T06:12:55;94795.53;;;10.24;58.59
64668;BME280;51077;42.716;23.344;2023-11-22T06:15:20;94803.00;;;10.24;58.52
64668;BME280;51077;42.716;23.344;2023-11-22T06:17:47;94795.75;;;10.26;58.67
64668;BME280;51077;42.716;23.344;2023-11-22T06:20:14;94795.75;;;10.26;58.63
64668;BME280;51077;42.716;23.344;2023-11-22T06:22:39;94807.44;;;10.27;58.67
64668;BME280;51077;42.716;23.344;2023-11-22T06:25:11;94810.44;;;10.29;58.74
64668;BME280;51077;42.716;23.344;2023-11-22T06:27:37;94821.41;;;10.29;58.62
64668;BME280;51077;42.716;23.344;2023-11-22T06:30:04;94822.88;;;10.30;58.77
64668;BME280;51077;42.716;23.344;2023-11-22T06:32:29;94818.88;;;10.31;58.69
64668;BME280;51077;42.716;23.344;2023-11-22T06:34:54;94818.88;;;10.31;58.70
64668;BME280;51077;42.716;23.344;2023-11-22T06:37:20;94813.38;;;10.31;58.77
64668;BME280;51077;42.716;23.344;2023-11-22T06:39:46;94816.13;;;10.31;58.92
64668;BME280;51077;42.716;23.344;2023-11-22T06:42:12;94819.84;;;10.34;58.77
64668;BME280;51077;42.716;23.344;2023-11-22T06:44:38;94829.53;;;10.35;58.84
64668;BME280;51077;42.716;23.344;2023-11-22T06:47:05;94834.53;;;10.36;58.73
64668;BME280;51077;42.716;23.344;2023-11-22T06:49:32;94838.00;;;10.37;58.80
64668;BME280;51077;42.716;23.344;2023-11-22T06:51:58;94841.50;;;10.37;58.97
64668;BME280;51077;42.716;23.344;2023-11-22T06:54:24;94835.47;;;10.39;58.86
64668;BME280;51077;42.716;23.344;2023-11-22T06:56:50;94845.72;;;10.38;58.59
64668;BME280;51077;42.716;23.344;2023-11-22T06:59:16;94834.75;;;10.38;59.00
64668;BME280;51077;42.716;23.344;2023-11-22T07:01:42;94840.97;;;10.39;58.73
64668;BME280;51077;42.716;23.344;2023-11-22T07:04:07;94846.69;;;10.41;58.77
64668;BME280;51077;42.716;23.344;2023-11-22T07:06:33;94844.69;;;10.41;58.91
64668;BME280;51077;42.716;23.344;2023-11-22T07:08:59;94840.66;;;10.42;58.85
64668;BME280;51077;42.716;23.344;2023-11-22T07:11:24;94860.06;;;10.44;58.76
64668;BME280;51077;42.716;23.344;2023-11-22T07:13:51;94862.53;;;10.48;58.80
64668;BME280;51077;42.716;23.344;2023-11-22T07:16:17;94861.25;;;10.49;58.92
64668;BME280;51077;42.716;23.344;2023-11-22T07:18:44;94873.00;;;10.49;58.76
64668;BME280;51077;42.716;23.344;2023-11-22T07:21:10;94866.25;;;10.50;58.79
64668;BME280;51077;42.716;23.344;2023-11-22T07:23:37;94861.69;;;10.53;58.73
64668;BME280;51077;42.716;23.344;2023-11-22T07:26:03;94858.97;;;10.53;58.82
64668;BME280;51077;42.716;23.344;2023-11-22T07:28:29;94864.69;;;10.55;58.75
64668;BME280;51077;42.716;23.344;2023-11-22T07:30:56;94862.88;;;10.57;58.86
64668;BME280;51077;42.716;23.344;2023-11-22T07:33:22;94867.88;;;10.59;58.79
64668;BME280;51077;42.716;23.344;2023-11-22T07:35:51;94872.81;;;10.61;58.72
64668;BME280;51077;42.716;23.344;2023-11-22T07:38:17;94868.31;;;10.63;58.66
64668;BME280;51077;42.716;23.344;2023-11-22T07:40:42;94873.56;;;10.61;58.89
64668;BME280;51077;42.716;23.344;2023-11-22T07:43:08;94880.03;;;10.64;59.07
64668;BME280;51077;42.716;23.344;2023-11-22T07:45:34;94876.53;;;10.63;59.02
64668;BME280;51077;42.716;23.344;2023-11-22T07:47:59;94883.25;;;10.62;59.18
64668;BME280;51077;42.716;23.344;2023-11-22T07:50:26;94881.28;;;10.63;59.10
64668;BME280;51077;42.716;23.344;2023-11-22T07:52:52;94875.25;;;10.64;59.22
64668;BME280;51077;42.716;23.344;2023-11-22T07:55:17;94881.50;;;10.65;59.28
64668;BME280;51077;42.716;23.344;2023-11-22T07:57:50;94887.97;;;10.67;59.36
64668;BME280;51077;42.716;23.344;2023-11-22T08:00:17;94885.22;;;10.67;59.31
64668;BME280;51077;42.716;23.344;2023-11-22T08:02:45;94893.66;;;10.69;59.29
64668;BME280;51077;42.716;23.344;2023-11-22T08:05:11;94893.66;;;10.69;59.21
64668;BME280;51077;42.716;23.344;2023-11-22T08:07:38;94890.63;;;10.73;59.36
64668;BME280;51077;42.716;23.344;2023-11-22T08:10:07;94891.34;;;10.73;59.17
64668;BME280;51077;42.716;23.344;2023-11-22T08:12:43;94888.06;;;10.75;59.32
64668;BME280;51077;42.716;23.344;2023-11-22T08:15:10;94891.06;;;10.77;59.20
64668;BME280;51077;42.716;23.344;2023-11-22T08:17:39;94891.25;;;10.79;59.23
64668;BME280;51077;42.716;23.344;2023-11-22T08:20:05;94895.72;;;10.82;59.24
64668;BME280;51077;42.716;23.344;2023-11-22T08:22:34;94891.19;;;10.85;59.15
64668;BME280;51077;42.716;23.344;2023-11-22T08:25:03;94898.38;;;10.88;59.08
64668;BME280;51077;42.716;23.344;2023-11-22T08:27:29;94902.06;;;10.90;59.28
64668;BME280;51077;42.716;23.344;2023-11-22T08:29:56;94903.06;;;10.93;59.21
64668;BME280;51077;42.716;23.344;2023-11-22T08:32:21;94902.72;;;10.96;59.01
64668;BME280;51077;42.716;23.344;2023-11-22T08:34:51;94903.91;;;11.01;58.74
64668;BME280;51077;42.716;23.344;2023-11-22T08:37:18;94913.41;;;11.00;58.92
64668;BME280;51077;42.716;23.344;2023-11-22T08:39:44;94926.31;;;11.05;58.97
64668;BME280;51077;42.716;23.344;2023-11-22T08:42:09;94918.31;;;11.07;59.03
64668;BME280;51077;42.716;23.344;2023-11-22T08:44:38;94919.78;;;11.08;58.96
64668;BME280;51077;42.716;23.344;2023-11-22T08:47:04;94925.28;;;11.08;59.01
64668;BME280;51077;42.716;23.344;2023-11-22T08:49:30;94928.97;;;11.11;58.97
64668;BME280;51077;42.716;23.344;2023-11-22T08:51:56;94921.47;;;11.11;59.07
64668;BME280;51077;42.716;23.344;2023-11-22T08:54:22;94911.44;;;11.14;59.13
64668;BME280;51077;42.716;23.344;2023-11-22T08:56:47;94917.91;;;11.16;58.99
64668;BME280;51077;42.716;23.344;2023-11-22T08:59:13;94920.13;;;11.18;59.04
64668;BME280;51077;42.716;23.344;2023-11-22T09:01:39;94916.31;;;11.21;58.92
64668;BME280;51077;42.716;23.344;2023-11-22T09:04:05;94923.28;;;11.22;58.73
64668;BME280;51077;42.716;23.344;2023-11-22T09:06:33;94928.28;;;11.23;58.92
64668;BME280;51077;42.716;23.344;2023-11-22T09:09:00;94930.50;;;11.25;59.03
64668;BME280;51077;42.716;23.344;2023-11-22T09:11:26;94941.69;;;11.27;58.68
64668;BME280;51077;42.716;23.344;2023-11-22T09:13:51;94939.91;;;11.29;58.79
64668;BME280;51077;42.716;23.344;2023-11-22T09:16:19;94938.13;;;11.32;58.92
64668;BME280;51077;42.716;23.344;2023-11-22T09:18:47;94933.59;;;11.35;58.79
64668;BME280;51077;42.716;23.344;2023-11-22T09:21:12;94937.28;;;11.37;58.89
64668;BME280;51077;42.716;23.344;2023-11-22T09:23:38;94947.22;;;11.40;58.97
64668;BME280;51077;42.716;23.344;2023-11-22T09:26:04;94947.97;;;11.41;58.57
64668;BME280;51077;42.716;23.344;2023-11-22T09:28:30;94955.16;;;11.44;58.80
64668;BME280;51077;42.716;23.344;2023-11-22T09:30:56;94950.41;;;11.44;58.69
64668;BME280;51077;42.716;23.344;2023-11-22T09:33:31;94944.59;;;11.48;58.53
64668;BME280;51077;42.716;23.344;2023-11-22T09:35:57;94944.84;;;11.50;58.79
64668;BME280;51077;42.716;23.344;2023-11-22T09:38:25;94947.03;;;11.51;58.55
64668;BME280;51077;42.716;23.344;2023-11-22T09:40:51;94945.25;;;11.54;58.92
64668;BME280;51077;42.716;23.344;2023-11-22T09:43:18;94959.22;;;11.56;58.62
64668;BME280;51077;42.716;23.344;2023-11-22T09:45:46;94953.19;;;11.57;58.52
64668;BME280;51077;42.716;23.344;2023-11-22T09:48:16;94960.19;;;11.58;58.72
64668;BME280;51077;42.716;23.344;2023-11-22T09:51:04;94961.13;;;11.61;58.60
64668;BME280;51077;42.716;23.344;2023-11-22T09:56:14;94934.50;;;11.69;58.41
64668;BME280;51077;42.716;23.344;2023-11-22T09:58:41;94939.88;;;11.75;58.36
64668;BME280;51077;42.716;23.344;2023-11-22T10:01:13;94931.53;;;11.80;58.19
64668;BME280;51077;42.716;23.344;2023-11-22T10:03:39;94936.22;;;11.86;58.50
64668;BME280;51077;42.716;23.344;2023-11-22T10:06:06;94940.88;;;11.91;58.29
64668;BME280;51077;42.716;23.344;2023-11-22T10:08:32;94944.25;;;11.97;58.06
64668;BME280;51077;42.716;23.344;2023-11-22T10:10:58;94946.91;;;12.02;58.09
64668;BME280;51077;42.716;23.344;2023-11-22T10:13:24;94939.09;;;12.06;57.97
64668;BME280;51077;42.716;23.344;2023-11-22T10:15:50;94943.75;;;12.12;57.90
64668;BME280;51077;42.716;23.344;2023-11-22T10:18:18;94935.16;;;12.15;57.87
64668;BME280;51077;42.716;23.344;2023-11-22T10:20:44;94938.84;;;12.18;57.56
64668;BME280;51077;42.716;23.344;2023-11-22T10:23:15;94936.00;;;12.23;57.60
64668;BME280;51077;42.716;23.344;2023-11-22T10:25:45;94934.19;;;12.26;57.56
64668;BME280;51077;42.716;23.344;2023-11-22T10:28:13;94945.09;;;12.31;57.52
64668;BME280;51077;42.716;23.344;2023-11-22T10:30:38;94938.53;;;12.35;57.57
64668;BME280;51077;42.716;23.344;2023-11-22T10:33:06;94934.19;;;12.39;57.54
64668;BME280;51077;42.716;23.344;2023-11-22T10:35:31;94936.06;;;12.44;57.18
64668;BME280;51077;42.716;23.344;2023-11-22T10:37:59;94942.22;;;12.50;57.22
64668;BME280;51077;42.716;23.344;2023-11-22T10:40:28;94938.59;;;12.55;57.10
64668;BME280;51077;42.716;23.344;2023-11-22T10:42:55;94946.72;;;12.61;56.65
64668;BME280;51077;42.716;23.344;2023-11-22T10:45:21;94939.44;;;12.64;57.03
64668;BME280;51077;42.716;23.344;2023-11-22T10:47:49;94945.13;;;12.66;56.71
64668;BME280;51077;42.716;23.344;2023-11-22T10:50:15;94949.34;;;12.67;56.90
64668;BME280;51077;42.716;23.344;2023-11-22T10:52:42;94952.34;;;12.69;56.94
64668;BME280;51077;42.716;23.344;2023-11-22T10:55:12;94944.81;;;12.69;56.99
64668;BME280;51077;42.716;23.344;2023-11-22T10:57:45;94945.78;;;12.72;56.91
64668;BME280;51077;42.716;23.344;2023-11-22T11:00:15;94938.25;;;12.72;56.97
64668;BME280;51077;42.716;23.344;2023-11-22T11:02:45;94943.94;;;12.74;57.08
64668;BME280;51077;42.716;23.344;2023-11-22T11:05:33;94940.69;;;12.76;56.90
64668;BME280;51077;42.716;23.344;2023-11-22T11:08:07;94944.91;;;12.77;56.68
64668;BME280;51077;42.716;23.344;2023-11-22T11:10:46;94945.09;;;12.79;56.93
64668;BME280;51077;42.716;23.344;2023-11-22T11:13:12;94947.13;;;12.78;56.81
64668;BME280;51077;42.716;23.344;2023-11-22T11:15:42;94937.38;;;12.77;56.78
64668;BME280;51077;42.716;23.344;2023-11-22T11:18:14;94944.91;;;12.77;56.82
64668;BME280;51077;42.716;23.344;2023-11-22T11:20:53;94943.44;;;12.76;57.15
64668;BME280;51077;42.716;23.344;2023-11-22T11:23:23;94946.69;;;12.74;57.23
64668;BME280;51077;42.716;23.344;2023-11-22T11:25:54;94944.50;;;12.73;57.17
64668;BME280;51077;42.716;23.344;2023-11-22T11:28:20;94944.50;;;12.73;57.14
64668;BME280;51077;42.716;23.344;2023-11-22T11:30:49;94944.50;;;12.73;57.34
64668;BME280;51077;42.716;23.344;2023-11-22T11:33:52;94945.22;;;12.73;57.39
64668;BME280;51077;42.716;23.344;2023-11-22T11:38:59;94939.19;;;12.75;57.38
64668;BME280;51077;42.716;23.344;2023-11-22T11:41:31;94938.66;;;12.76;57.10
64668;BME280;51077;42.716;23.344;2023-11-22T11:44:03;94936.84;;;12.79;57.24
64668;BME280;51077;42.716;23.344;2023-11-22T11:46:30;94931.53;;;12.81;57.24
64668;BME280;51077;42.716;23.344;2023-11-22T11:48:56;94942.03;;;12.82;57.39
64668;BME280;51077;42.716;23.344;2023-11-22T11:51:23;94945.00;;;12.85;57.32
64668;BME280;51077;42.716;23.344;2023-11-22T11:53:49;94953.44;;;12.87;57.43
64668;BME280;51077;42.716;23.344;2023-11-22T11:56:15;94948.91;;;12.89;57.35
64668;BME280;51077;42.716;23.344;2023-11-22T11:59:06;94951.09;;;12.91;57.35
64668;BME280;51077;42.716;23.344;2023-11-22T12:01:31;94955.13;;;12.90;57.22
64668;BME280;51077;42.716;23.344;2023-11-22T12:04:02;94954.59;;;12.91;57.53
64668;BME280;51077;42.716;23.344;2023-11-22T12:06:29;94954.06;;;12.93;57.42
64668;BME280;51077;42.716;23.344;2023-11-22T12:08:56;94955.75;;;12.96;57.35
64668;BME280;51077;42.716;23.344;2023-11-22T12:11:21;94961.25;;;12.96;57.28
64668;BME280;51077;42.716;23.344;2023-11-22T12:13:47;94967.50;;;12.96;57.56
64668;BME280;51077;42.716;23.344;2023-11-22T12:16:15;94972.28;;;12.96;57.45
64668;BME280;51077;42.716;23.344;2023-11-22T12:18:48;94983.28;;;12.96;57.52
64668;BME280;51077;42.716;23.344;2023-11-22T12:21:15;94974.28;;;12.95;57.63
64668;BME280;51077;42.716;23.344;2023-11-22T12:23:43;94978.31;;;12.94;57.62
64668;BME280;51077;42.716;23.344;2023-11-22T12:26:17;94980.34;;;12.94;57.72
64668;BME280;51077;42.716;23.344;2023-11-22T12:28:45;94982.13;;;12.91;57.78
64668;BME280;51077;42.716;23.344;2023-11-22T12:31:13;94978.66;;;12.91;57.75
64668;BME280;51077;42.716;23.344;2023-11-22T12:33:40;94977.19;;;12.90;57.78
64668;BME280;51077;42.716;23.344;2023-11-22T12:36:07;94972.59;;;12.92;57.96
64668;BME280;51077;42.716;23.344;2023-11-22T12:38:40;94980.34;;;12.94;57.86
64668;BME280;51077;42.716;23.344;2023-11-22T12:41:06;94989.13;;;12.92;57.67
64668;BME280;51077;42.716;23.344;2023-11-22T12:43:32;94985.84;;;12.94;58.01
64668;BME280;51077;42.716;23.344;2023-11-22T12:46:05;94984.03;;;12.96;58.03
64668;BME280;51077;42.716;23.344;2023-11-22T12:48:39;94993.03;;;12.97;57.85
64668;BME280;51077;42.716;23.344;2023-11-22T12:51:15;95005.34;;;12.96;58.01
64668;BME280;51077;42.716;23.344;2023-11-22T12:53:41;95008.09;;;12.96;58.07
64668;BME280;51077;42.716;23.344;2023-11-22T12:56:06;95007.34;;;12.95;58.09
64668;BME280;51077;42.716;23.344;2023-11-22T12:58:32;95016.34;;;12.96;57.89
64668;BME280;51077;42.716;23.344;2023-11-22T13:00:58;95014.31;;;12.96;58.14
64668;BME280;51077;42.716;23.344;2023-11-22T13:03:26;95017.09;;;12.96;58.27
64668;BME280;51077;42.716;23.344;2023-11-22T13:05:51;95006.06;;;12.96;58.09
64668;BME280;51077;42.716;23.344;2023-11-22T13:08:18;95010.31;;;12.97;58.08